sensor_id;sensor_type;location;lat;lon;timestamp;P1;durP1;ratioP1;P2;durP2;ratioP2
51971;SDS011;37991;49.662;10.060;2022-11-20T00:01:59;20.45;;;8.90;;
51971;SDS011;37991;49.662;10.060;2022-11-20T00:04:25;22.13;;;10.20;;
51971;SDS011;37991;49.662;10.060;2022-11-20T00:06:50;21.48;;;9.68;;
51971;SDS011;37991;49.662;10.060;2022-11-20T00:09:15;21.10;;;9.43;;
51971;SDS011;37991;49.662;10.060;2022-11-20T00:11:41;24.55;;;9.80;;
51971;SDS011;37991;49.662;10.060;2022-11-20T00:14:06;22.33;;;9.85;;
51971;SDS011;37991;49.662;10.060;2022-11-20T00:16:32;27.15;;;10.30;;
51971;SDS011;37991;49.662;10.060;2022-11-20T00:18:58;21.48;;;9.35;;
51971;SDS011;37991;49.662;10.060;2022-11-20T00:21:24;22.25;;;10.15;;
51971;SDS011;37991;49.662;10.060;2022-11-20T00:23:51;25.10;;;10.00;;
51971;SDS011;37991;49.662;10.060;2022-11-20T00:26:19;24.05;;;9.50;;
51971;SDS011;37991;49.662;10.060;2022-11-20T00:28:53;23.05;;;9.45;;
51971;SDS011;37991;49.662;10.060;2022-11-20T00:31:20;23.08;;;9.95;;
51971;SDS011;37991;49.662;10.060;2022-11-20T00:33:45;24.48;;;9.98;;
51971;SDS011;37991;49.662;10.060;2022-11-20T00:36:18;24.23;;;9.30;;
51971;SDS011;37991;49.662;10.060;2022-11-20T00:38:45;21.77;;;10.32;;
51971;SDS011;37991;49.662;10.060;2022-11-20T00:41:12;22.25;;;9.98;;
51971;SDS011;37991;49.662;10.060;2022-11-20T00:43:39;19.90;;;9.23;;
51971;SDS011;37991;49.662;10.060;2022-11-20T00:46:06;25.88;;;10.23;;
51971;SDS011;37991;49.662;10.060;2022-11-20T00:48:33;21.58;;;9.95;;
51971;SDS011;37991;49.662;10.060;2022-11-20T00:50:59;24.25;;;9.90;;
51971;SDS011;37991;49.662;10.060;2022-11-20T00:53:25;24.63;;;9.77;;
51971;SDS011;37991;49.662;10.060;2022-11-20T00:55:57;25.00;;;9.40;;
51971;SDS011;37991;49.662;10.060;2022-11-20T00:58:25;24.83;;;10.03;;
51971;SDS011;37991;49.662;10.060;2022-11-20T01:00:59;24.85;;;10.32;;
51971;SDS011;37991;49.662;10.060;2022-11-20T01:03:30;23.90;;;9.68;;
51971;SDS011;37991;49.662;10.060;2022-11-20T01:06:00;23.88;;;10.10;;
51971;SDS011;37991;49.662;10.060;2022-11-20T01:08:31;51.90;;;16.52;;
51971;SDS011;37991;49.662;10.060;2022-11-20T01:11:01;24.52;;;10.00;;
51971;SDS011;37991;49.662;10.060;2022-11-20T01:13:29;23.45;;;9.45;;
51971;SDS011;37991;49.662;10.060;2022-11-20T01:16:05;26.70;;;10.20;;
51971;SDS011;37991;49.662;10.060;2022-11-20T01:18:34;24.60;;;10.18;;
51971;SDS011;37991;49.662;10.060;2022-11-20T01:21:01;25.90;;;10.13;;
51971;SDS011;37991;49.662;10.060;2022-11-20T01:23:32;26.15;;;11.02;;
51971;SDS011;37991;49.662;10.060;2022-11-20T01:26:03;21.48;;;8.98;;
51971;SDS011;37991;49.662;10.060;2022-11-20T01:28:30;23.23;;;9.88;;
51971;SDS011;37991;49.662;10.060;2022-11-20T01:30:56;21.10;;;9.85;;
51971;SDS011;37991;49.662;10.060;2022-11-20T01:33:21;25.17;;;10.25;;
51971;SDS011;37991;49.662;10.060;2022-11-20T01:35:47;19.92;;;9.32;;
51971;SDS011;37991;49.662;10.060;2022-11-20T01:38:14;25.67;;;9.50;;
51971;SDS011;37991;49.662;10.060;2022-11-20T01:40:40;22.20;;;9.80;;
51971;SDS011;37991;49.662;10.060;2022-11-20T01:43:18;26.90;;;9.63;;
51971;SDS011;37991;49.662;10.060;2022-11-20T01:46:02;23.83;;;9.40;;
51971;SDS011;37991;49.662;10.060;2022-11-20T01:48:44;20.98;;;9.20;;
51971;SDS011;37991;49.662;10.060;2022-11-20T01:51:33;24.35;;;9.75;;
51971;SDS011;37991;49.662;10.060;2022-11-20T01:54:38;26.67;;;10.05;;
51971;SDS011;37991;49.662;10.060;2022-11-20T01:57:09;27.90;;;10.10;;
51971;SDS011;37991;49.662;10.060;2022-11-20T01:59:38;23.15;;;10.00;;
51971;SDS011;37991;49.662;10.060;2022-11-20T02:02:09;23.85;;;9.88;;
51971;SDS011;37991;49.662;10.060;2022-11-20T02:04:35;25.08;;;9.82;;
51971;SDS011;37991;49.662;10.060;2022-11-20T02:07:01;25.08;;;10.13;;
51971;SDS011;37991;49.662;10.060;2022-11-20T02:09:29;28.80;;;11.68;;
51971;SDS011;37991;49.662;10.060;2022-11-20T02:11:55;57.83;;;20.75;;
51971;SDS011;37991;49.662;10.060;2022-11-20T02:14:21;83.53;;;29.67;;
51971;SDS011;37991;49.662;10.060;2022-11-20T02:16:48;52.10;;;19.95;;
51971;SDS011;37991;49.662;10.060;2022-11-20T02:19:35;35.55;;;13.38;;
51971;SDS011;37991;49.662;10.060;2022-11-20T02:22:19;38.90;;;13.75;;
51971;SDS011;37991;49.662;10.060;2022-11-20T02:24:50;30.77;;;12.98;;
51971;SDS011;37991;49.662;10.060;2022-11-20T02:27:16;22.58;;;10.20;;
51971;SDS011;37991;49.662;10.060;2022-11-20T02:29:45;27.50;;;10.85;;
51971;SDS011;37991;49.662;10.060;2022-11-20T02:34:50;20.98;;;8.95;;
51971;SDS011;37991;49.662;10.060;2022-11-20T02:37:16;26.45;;;11.07;;
51971;SDS011;37991;49.662;10.060;2022-11-20T02:39:43;22.77;;;9.98;;
51971;SDS011;37991;49.662;10.060;2022-11-20T02:42:11;23.48;;;9.48;;
51971;SDS011;37991;49.662;10.060;2022-11-20T02:44:36;23.73;;;9.68;;
51971;SDS011;37991;49.662;10.060;2022-11-20T02:47:02;23.52;;;10.13;;
51971;SDS011;37991;49.662;10.060;2022-11-20T02:49:27;24.48;;;10.10;;
51971;SDS011;37991;49.662;10.060;2022-11-20T02:51:52;29.35;;;11.00;;
51971;SDS011;37991;49.662;10.060;2022-11-20T02:54:18;24.30;;;9.82;;
51971;SDS011;37991;49.662;10.060;2022-11-20T02:56:43;24.98;;;10.77;;
51971;SDS011;37991;49.662;10.060;2022-11-20T02:59:09;23.10;;;10.38;;
51971;SDS011;37991;49.662;10.060;2022-11-20T03:01:34;19.65;;;9.13;;
51971;SDS011;37991;49.662;10.060;2022-11-20T03:04:00;24.88;;;10.65;;
51971;SDS011;37991;49.662;10.060;2022-11-20T03:06:25;28.33;;;9.95;;
51971;SDS011;37991;49.662;10.060;2022-11-20T03:08:51;25.45;;;10.73;;
51971;SDS011;37991;49.662;10.060;2022-11-20T03:11:16;24.25;;;10.23;;
51971;SDS011;37991;49.662;10.060;2022-11-20T03:13:42;25.23;;;10.15;;
51971;SDS011;37991;49.662;10.060;2022-11-20T03:16:08;22.38;;;9.65;;
51971;SDS011;37991;49.662;10.060;2022-11-20T03:18:36;23.33;;;10.38;;
51971;SDS011;37991;49.662;10.060;2022-11-20T03:21:02;24.20;;;10.05;;
51971;SDS011;37991;49.662;10.060;2022-11-20T03:23:29;25.15;;;10.27;;
51971;SDS011;37991;49.662;10.060;2022-11-20T03:25:55;22.77;;;9.75;;
51971;SDS011;37991;49.662;10.060;2022-11-20T03:28:20;25.10;;;10.00;;
51971;SDS011;37991;49.662;10.060;2022-11-20T03:30:46;21.92;;;9.55;;
51971;SDS011;37991;49.662;10.060;2022-11-20T03:33:11;22.98;;;10.18;;
51971;SDS011;37991;49.662;10.060;2022-11-20T03:35:36;24.88;;;10.23;;
51971;SDS011;37991;49.662;10.060;2022-11-20T03:38:02;25.98;;;10.68;;
51971;SDS011;37991;49.662;10.060;2022-11-20T03:40:27;26.25;;;11.27;;
51971;SDS011;37991;49.662;10.060;2022-11-20T03:42:52;28.95;;;11.63;;
51971;SDS011;37991;49.662;10.060;2022-11-20T03:45:18;21.13;;;9.73;;
51971;SDS011;37991;49.662;10.060;2022-11-20T03:47:43;24.75;;;10.63;;
51971;SDS011;37991;49.662;10.060;2022-11-20T03:50:10;27.40;;;10.45;;
51971;SDS011;37991;49.662;10.060;2022-11-20T03:52:38;26.23;;;10.88;;
51971;SDS011;37991;49.662;10.060;2022-11-20T03:55:04;25.60;;;11.02;;
51971;SDS011;37991;49.662;10.060;2022-11-20T03:57:30;25.25;;;10.45;;
51971;SDS011;37991;49.662;10.060;2022-11-20T03:59:55;27.38;;;10.90;;
51971;SDS011;37991;49.662;10.060;2022-11-20T04:02:20;25.00;;;10.77;;
51971;SDS011;37991;49.662;10.060;2022-11-20T04:04:46;22.45;;;9.75;;
51971;SDS011;37991;49.662;10.060;2022-11-20T04:07:11;27.77;;;10.45;;
51971;SDS011;37991;49.662;10.060;2022-11-20T04:09:37;24.27;;;9.55;;
51971;SDS011;37991;49.662;10.060;2022-11-20T04:12:02;22.95;;;10.18;;
51971;SDS011;37991;49.662;10.060;2022-11-20T04:14:27;23.55;;;10.02;;
51971;SDS011;37991;49.662;10.060;2022-11-20T04:16:53;23.10;;;8.95;;
51971;SDS011;37991;49.662;10.060;2022-11-20T04:19:18;26.00;;;10.75;;
51971;SDS011;37991;49.662;10.060;2022-11-20T04:21:44;21.92;;;9.35;;
51971;SDS011;37991;49.662;10.060;2022-11-20T04:24:09;20.33;;;8.23;;
51971;SDS011;37991;49.662;10.060;2022-11-20T04:26:38;22.33;;;9.10;;
51971;SDS011;37991;49.662;10.060;2022-11-20T04:29:04;22.90;;;9.93;;
51971;SDS011;37991;49.662;10.060;2022-11-20T04:31:30;21.02;;;9.05;;
51971;SDS011;37991;49.662;10.060;2022-11-20T04:34:02;23.10;;;9.85;;
51971;SDS011;37991;49.662;10.060;2022-11-20T04:36:29;23.38;;;9.88;;
51971;SDS011;37991;49.662;10.060;2022-11-20T04:38:56;21.42;;;8.90;;
51971;SDS011;37991;49.662;10.060;2022-11-20T04:41:27;25.95;;;11.18;;
51971;SDS011;37991;49.662;10.060;2022-11-20T04:43:55;21.35;;;10.30;;
51971;SDS011;37991;49.662;10.060;2022-11-20T04:46:24;25.80;;;10.65;;
51971;SDS011;37991;49.662;10.060;2022-11-20T04:48:51;26.88;;;10.70;;
51971;SDS011;37991;49.662;10.060;2022-11-20T04:51:16;24.23;;;9.85;;
51971;SDS011;37991;49.662;10.060;2022-11-20T04:53:42;25.67;;;10.77;;
51971;SDS011;37991;49.662;10.060;2022-11-20T04:56:08;29.13;;;10.95;;
51971;SDS011;37991;49.662;10.060;2022-11-20T04:58:35;22.83;;;9.68;;
51971;SDS011;37991;49.662;10.060;2022-11-20T05:01:05;21.20;;;10.02;;
51971;SDS011;37991;49.662;10.060;2022-11-20T05:03:32;20.92;;;9.60;;
51971;SDS011;37991;49.662;10.060;2022-11-20T05:06:01;27.67;;;10.32;;
51971;SDS011;37991;49.662;10.060;2022-11-20T05:08:29;26.08;;;10.73;;
51971;SDS011;37991;49.662;10.060;2022-11-20T05:11:02;25.58;;;10.70;;
51971;SDS011;37991;49.662;10.060;2022-11-20T05:13:38;24.67;;;9.93;;
51971;SDS011;37991;49.662;10.060;2022-11-20T05:16:08;24.13;;;10.23;;
51971;SDS011;37991;49.662;10.060;2022-11-20T05:18:36;28.02;;;10.82;;
51971;SDS011;37991;49.662;10.060;2022-11-20T05:21:03;26.55;;;10.60;;
51971;SDS011;37991;49.662;10.060;2022-11-20T05:23:30;22.85;;;10.45;;
51971;SDS011;37991;49.662;10.060;2022-11-20T05:25:56;26.35;;;10.30;;
51971;SDS011;37991;49.662;10.060;2022-11-20T05:28:22;27.08;;;11.13;;
51971;SDS011;37991;49.662;10.060;2022-11-20T05:30:48;28.55;;;10.95;;
51971;SDS011;37991;49.662;10.060;2022-11-20T05:33:14;27.45;;;10.57;;
51971;SDS011;37991;49.662;10.060;2022-11-20T05:35:40;25.63;;;10.75;;
51971;SDS011;37991;49.662;10.060;2022-11-20T05:38:05;24.60;;;10.70;;
51971;SDS011;37991;49.662;10.060;2022-11-20T05:40:31;24.92;;;9.93;;
51971;SDS011;37991;49.662;10.060;2022-11-20T05:42:56;24.67;;;10.23;;
51971;SDS011;37991;49.662;10.060;2022-11-20T05:45:21;28.33;;;11.10;;
51971;SDS011;37991;49.662;10.060;2022-11-20T05:47:47;23.45;;;10.32;;
51971;SDS011;37991;49.662;10.060;2022-11-20T05:50:13;22.77;;;10.30;;
51971;SDS011;37991;49.662;10.060;2022-11-20T05:52:38;24.75;;;9.93;;
51971;SDS011;37991;49.662;10.060;2022-11-20T05:55:04;22.13;;;9.88;;
51971;SDS011;37991;49.662;10.060;2022-11-20T05:57:30;23.33;;;10.20;;
51971;SDS011;37991;49.662;10.060;2022-11-20T05:59:56;26.33;;;10.50;;
51971;SDS011;37991;49.662;10.060;2022-11-20T06:02:21;24.67;;;10.25;;
51971;SDS011;37991;49.662;10.060;2022-11-20T06:04:46;23.13;;;10.13;;
51971;SDS011;37991;49.662;10.060;2022-11-20T06:07:12;24.70;;;10.05;;
51971;SDS011;37991;49.662;10.060;2022-11-20T06:09:37;24.70;;;9.70;;
51971;SDS011;37991;49.662;10.060;2022-11-20T06:12:03;25.48;;;10.15;;
51971;SDS011;37991;49.662;10.060;2022-11-20T06:14:28;25.80;;;10.52;;
51971;SDS011;37991;49.662;10.060;2022-11-20T06:16:53;24.50;;;10.13;;
51971;SDS011;37991;49.662;10.060;2022-11-20T06:19:19;24.00;;;10.65;;
51971;SDS011;37991;49.662;10.060;2022-11-20T06:21:44;26.88;;;10.23;;
51971;SDS011;37991;49.662;10.060;2022-11-20T06:24:10;22.15;;;9.60;;
51971;SDS011;37991;49.662;10.060;2022-11-20T06:26:36;24.23;;;10.38;;
51971;SDS011;37991;49.662;10.060;2022-11-20T06:29:01;22.02;;;9.70;;
51971;SDS011;37991;49.662;10.060;2022-11-20T06:31:27;24.88;;;10.43;;
51971;SDS011;37991;49.662;10.060;2022-11-20T06:33:52;24.55;;;9.70;;
51971;SDS011;37991;49.662;10.060;2022-11-20T06:36:19;28.70;;;10.95;;
51971;SDS011;37991;49.662;10.060;2022-11-20T06:38:45;25.23;;;10.73;;
51971;SDS011;37991;49.662;10.060;2022-11-20T06:41:12;29.65;;;11.63;;
51971;SDS011;37991;49.662;10.060;2022-11-20T06:43:42;22.70;;;9.75;;
51971;SDS011;37991;49.662;10.060;2022-11-20T06:46:09;29.45;;;11.52;;
51971;SDS011;37991;49.662;10.060;2022-11-20T06:48:35;25.00;;;10.07;;
51971;SDS011;37991;49.662;10.060;2022-11-20T06:51:02;27.35;;;11.00;;
51971;SDS011;37991;49.662;10.060;2022-11-20T06:53:28;25.48;;;10.40;;
51971;SDS011;37991;49.662;10.060;2022-11-20T06:55:55;26.45;;;10.75;;
51971;SDS011;37991;49.662;10.060;2022-11-20T06:58:21;26.67;;;10.05;;
51971;SDS011;37991;49.662;10.060;2022-11-20T07:00:46;21.08;;;8.65;;
51971;SDS011;37991;49.662;10.060;2022-11-20T07:03:11;26.10;;;10.45;;
51971;SDS011;37991;49.662;10.060;2022-11-20T07:05:37;25.50;;;10.38;;
51971;SDS011;37991;49.662;10.060;2022-11-20T07:08:03;26.60;;;10.13;;
51971;SDS011;37991;49.662;10.060;2022-11-20T07:10:29;25.85;;;9.75;;
51971;SDS011;37991;49.662;10.060;2022-11-20T07:12:55;26.70;;;10.75;;
51971;SDS011;37991;49.662;10.060;2022-11-20T07:15:20;25.65;;;10.90;;
51971;SDS011;37991;49.662;10.060;2022-11-20T07:17:47;26.00;;;10.50;;
51971;SDS011;37991;49.662;10.060;2022-11-20T07:20:13;28.05;;;10.60;;
51971;SDS011;37991;49.662;10.060;2022-11-20T07:22:39;27.70;;;10.15;;
51971;SDS011;37991;49.662;10.060;2022-11-20T07:25:05;23.48;;;9.35;;
51971;SDS011;37991;49.662;10.060;2022-11-20T07:27:31;29.20;;;11.80;;
51971;SDS011;37991;49.662;10.060;2022-11-20T07:29:56;29.48;;;10.63;;
51971;SDS011;37991;49.662;10.060;2022-11-20T07:32:21;23.98;;;9.70;;
51971;SDS011;37991;49.662;10.060;2022-11-20T07:34:47;24.38;;;9.50;;
51971;SDS011;37991;49.662;10.060;2022-11-20T07:37:13;23.73;;;9.85;;
51971;SDS011;37991;49.662;10.060;2022-11-20T07:39:39;22.63;;;9.63;;
51971;SDS011;37991;49.662;10.060;2022-11-20T07:42:05;23.10;;;9.18;;
51971;SDS011;37991;49.662;10.060;2022-11-20T07:44:31;19.63;;;9.32;;
51971;SDS011;37991;49.662;10.060;2022-11-20T07:46:57;20.70;;;9.23;;
51971;SDS011;37991;49.662;10.060;2022-11-20T07:49:22;22.20;;;9.73;;
51971;SDS011;37991;49.662;10.060;2022-11-20T07:51:50;27.52;;;11.27;;
51971;SDS011;37991;49.662;10.060;2022-11-20T07:54:16;25.27;;;10.07;;
51971;SDS011;37991;49.662;10.060;2022-11-20T07:56:41;25.52;;;10.23;;
51971;SDS011;37991;49.662;10.060;2022-11-20T07:59:07;22.92;;;9.38;;
51971;SDS011;37991;49.662;10.060;2022-11-20T08:01:32;28.33;;;10.40;;
51971;SDS011;37991;49.662;10.060;2022-11-20T08:03:57;29.30;;;11.45;;
51971;SDS011;37991;49.662;10.060;2022-11-20T08:06:23;29.13;;;11.32;;
51971;SDS011;37991;49.662;10.060;2022-11-20T08:08:49;26.55;;;12.40;;
51971;SDS011;37991;49.662;10.060;2022-11-20T08:11:15;24.63;;;10.57;;
51971;SDS011;37991;49.662;10.060;2022-11-20T08:13:59;25.23;;;10.45;;
51971;SDS011;37991;49.662;10.060;2022-11-20T08:16:37;29.02;;;11.25;;
51971;SDS011;37991;49.662;10.060;2022-11-20T08:19:03;26.15;;;11.50;;
51971;SDS011;37991;49.662;10.060;2022-11-20T08:21:29;24.75;;;11.23;;
51971;SDS011;37991;49.662;10.060;2022-11-20T08:23:55;29.75;;;12.02;;
51971;SDS011;37991;49.662;10.060;2022-11-20T08:26:22;31.88;;;12.32;;
51971;SDS011;37991;49.662;10.060;2022-11-20T08:28:48;32.45;;;12.73;;
51971;SDS011;37991;49.662;10.060;2022-11-20T08:31:13;27.98;;;11.27;;
51971;SDS011;37991;49.662;10.060;2022-11-20T08:33:39;24.20;;;10.30;;
51971;SDS011;37991;49.662;10.060;2022-11-20T08:36:04;28.52;;;12.18;;
51971;SDS011;37991;49.662;10.060;2022-11-20T08:38:30;30.50;;;12.32;;
51971;SDS011;37991;49.662;10.060;2022-11-20T08:40:59;30.92;;;12.10;;
51971;SDS011;37991;49.662;10.060;2022-11-20T08:43:44;32.58;;;13.75;;
51971;SDS011;37991;49.662;10.060;2022-11-20T08:46:10;30.30;;;13.02;;
51971;SDS011;37991;49.662;10.060;2022-11-20T08:48:35;33.75;;;12.30;;
51971;SDS011;37991;49.662;10.060;2022-11-20T08:51:01;28.65;;;12.38;;
51971;SDS011;37991;49.662;10.060;2022-11-20T08:53:27;33.35;;;14.20;;
51971;SDS011;37991;49.662;10.060;2022-11-20T08:55:52;27.88;;;11.48;;
51971;SDS011;37991;49.662;10.060;2022-11-20T08:58:18;27.98;;;12.02;;
51971;SDS011;37991;49.662;10.060;2022-11-20T09:00:43;38.65;;;12.23;;
51971;SDS011;37991;49.662;10.060;2022-11-20T09:03:08;31.42;;;11.95;;
51971;SDS011;37991;49.662;10.060;2022-11-20T09:05:34;35.13;;;12.80;;
51971;SDS011;37991;49.662;10.060;2022-11-20T09:07:59;33.00;;;12.00;;
51971;SDS011;37991;49.662;10.060;2022-11-20T09:10:25;28.98;;;11.68;;
51971;SDS011;37991;49.662;10.060;2022-11-20T09:12:51;31.52;;;11.63;;
51971;SDS011;37991;49.662;10.060;2022-11-20T09:15:17;35.72;;;12.55;;
51971;SDS011;37991;49.662;10.060;2022-11-20T09:17:49;34.92;;;13.07;;
51971;SDS011;37991;49.662;10.060;2022-11-20T09:20:26;32.42;;;12.70;;
51971;SDS011;37991;49.662;10.060;2022-11-20T09:22:53;32.45;;;12.07;;
51971;SDS011;37991;49.662;10.060;2022-11-20T09:25:19;36.78;;;12.90;;
51971;SDS011;37991;49.662;10.060;2022-11-20T09:27:44;30.52;;;12.20;;
51971;SDS011;37991;49.662;10.060;2022-11-20T09:30:11;28.02;;;11.20;;
51971;SDS011;37991;49.662;10.060;2022-11-20T09:32:40;30.60;;;11.18;;
51971;SDS011;37991;49.662;10.060;2022-11-20T09:35:06;24.13;;;10.45;;
51971;SDS011;37991;49.662;10.060;2022-11-20T09:37:32;29.13;;;11.32;;
51971;SDS011;37991;49.662;10.060;2022-11-20T09:39:57;28.02;;;10.50;;
51971;SDS011;37991;49.662;10.060;2022-11-20T09:42:26;25.80;;;10.85;;
51971;SDS011;37991;49.662;10.060;2022-11-20T09:56:12;33.47;;;12.80;;
51971;SDS011;37991;49.662;10.060;2022-11-20T09:58:45;28.75;;;11.35;;
51971;SDS011;37991;49.662;10.060;2022-11-20T10:01:18;29.30;;;12.13;;
51971;SDS011;37991;49.662;10.060;2022-11-20T10:08:59;32.67;;;13.05;;
51971;SDS011;37991;49.662;10.060;2022-11-20T10:14:20;24.60;;;10.07;;
51971;SDS011;37991;49.662;10.060;2022-11-20T10:19:54;22.13;;;10.18;;
51971;SDS011;37991;49.662;10.060;2022-11-20T10:25:18;14.85;;;7.68;;
51971;SDS011;37991;49.662;10.060;2022-11-20T10:30:57;18.33;;;7.85;;
51971;SDS011;37991;49.662;10.060;2022-11-20T10:33:26;19.63;;;8.60;;
51971;SDS011;37991;49.662;10.060;2022-11-20T10:39:18;18.58;;;7.85;;
51971;SDS011;37991;49.662;10.060;2022-11-20T10:41:51;18.25;;;7.15;;
51971;SDS011;37991;49.662;10.060;2022-11-20T10:44:22;15.68;;;7.45;;
51971;SDS011;37991;49.662;10.060;2022-11-20T10:47:13;17.38;;;7.53;;
51971;SDS011;37991;49.662;10.060;2022-11-20T10:49:40;17.60;;;7.57;;
51971;SDS011;37991;49.662;10.060;2022-11-20T10:52:20;19.80;;;8.55;;
51971;SDS011;37991;49.662;10.060;2022-11-20T11:00:30;17.55;;;7.03;;
51971;SDS011;37991;49.662;10.060;2022-11-20T11:02:57;16.42;;;7.40;;
51971;SDS011;37991;49.662;10.060;2022-11-20T11:08:16;17.80;;;7.95;;
51971;SDS011;37991;49.662;10.060;2022-11-20T11:13:45;19.85;;;8.80;;
51971;SDS011;37991;49.662;10.060;2022-11-20T11:16:04;18.52;;;7.68;;
51971;SDS011;37991;49.662;10.060;2022-11-20T11:18:30;12.93;;;6.18;;
51971;SDS011;37991;49.662;10.060;2022-11-20T11:20:57;13.75;;;6.05;;
51971;SDS011;37991;49.662;10.060;2022-11-20T11:23:34;14.45;;;7.32;;
51971;SDS011;37991;49.662;10.060;2022-11-20T11:26:01;12.30;;;6.03;;
51971;SDS011;37991;49.662;10.060;2022-11-20T11:28:29;13.52;;;6.32;;
51971;SDS011;37991;49.662;10.060;2022-11-20T11:30:54;14.73;;;6.80;;
51971;SDS011;37991;49.662;10.060;2022-11-20T11:33:24;16.05;;;6.75;;
51971;SDS011;37991;49.662;10.060;2022-11-20T11:38:21;13.10;;;5.78;;
51971;SDS011;37991;49.662;10.060;2022-11-20T11:40:53;13.25;;;6.30;;
51971;SDS011;37991;49.662;10.060;2022-11-20T11:43:21;12.88;;;6.32;;
51971;SDS011;37991;49.662;10.060;2022-11-20T11:48:58;11.15;;;5.72;;
51971;SDS011;37991;49.662;10.060;2022-11-20T11:51:31;12.70;;;6.45;;
51971;SDS011;37991;49.662;10.060;2022-11-20T11:54:03;12.18;;;5.72;;
51971;SDS011;37991;49.662;10.060;2022-11-20T11:56:37;14.32;;;6.10;;
51971;SDS011;37991;49.662;10.060;2022-11-20T11:59:04;13.95;;;5.85;;
51971;SDS011;37991;49.662;10.060;2022-11-20T12:01:44;11.88;;;5.50;;
51971;SDS011;37991;49.662;10.060;2022-11-20T12:07:15;9.13;;;4.70;;
51971;SDS011;37991;49.662;10.060;2022-11-20T12:09:49;10.05;;;5.10;;
51971;SDS011;37991;49.662;10.060;2022-11-20T12:12:20;11.82;;;5.25;;
51971;SDS011;37991;49.662;10.060;2022-11-20T12:14:49;9.40;;;4.75;;
51971;SDS011;37991;49.662;10.060;2022-11-20T12:17:19;11.48;;;5.40;;
51971;SDS011;37991;49.662;10.060;2022-11-20T12:19:45;11.70;;;5.22;;
51971;SDS011;37991;49.662;10.060;2022-11-20T12:23:15;11.30;;;5.03;;
51971;SDS011;37991;49.662;10.060;2022-11-20T12:25:22;9.38;;;4.63;;
51971;SDS011;37991;49.662;10.060;2022-11-20T12:27:59;12.48;;;4.85;;
51971;SDS011;37991;49.662;10.060;2022-11-20T12:30:53;10.30;;;4.45;;
51971;SDS011;37991;49.662;10.060;2022-11-20T12:36:40;9.40;;;4.72;;
51971;SDS011;37991;49.662;10.060;2022-11-20T12:52:48;10.82;;;4.55;;
51971;SDS011;37991;49.662;10.060;2022-11-20T12:55:27;9.98;;;4.57;;
51971;SDS011;37991;49.662;10.060;2022-11-20T13:00:56;8.90;;;4.47;;
51971;SDS011;37991;49.662;10.060;2022-11-20T13:06:16;12.68;;;5.43;;
51971;SDS011;37991;49.662;10.060;2022-11-20T13:08:45;9.85;;;4.82;;
51971;SDS011;37991;49.662;10.060;2022-11-20T13:11:33;12.18;;;5.93;;
51971;SDS011;37991;49.662;10.060;2022-11-20T13:14:09;9.60;;;4.90;;
51971;SDS011;37991;49.662;10.060;2022-11-20T13:19:35;9.10;;;4.68;;
51971;SDS011;37991;49.662;10.060;2022-11-20T13:22:00;8.52;;;4.60;;
51971;SDS011;37991;49.662;10.060;2022-11-20T13:24:28;8.23;;;4.50;;
51971;SDS011;37991;49.662;10.060;2022-11-20T13:26:59;10.40;;;4.78;;
51971;SDS011;37991;49.662;10.060;2022-11-20T13:29:27;11.82;;;4.85;;
51971;SDS011;37991;49.662;10.060;2022-11-20T13:32:05;11.75;;;5.07;;
51971;SDS011;37991;49.662;10.060;2022-11-20T13:34:37;9.82;;;4.82;;
51971;SDS011;37991;49.662;10.060;2022-11-20T13:37:03;12.23;;;5.43;;
51971;SDS011;37991;49.662;10.060;2022-11-20T13:39:35;13.63;;;6.30;;
51971;SDS011;37991;49.662;10.060;2022-11-20T13:42:54;15.07;;;6.60;;
51971;SDS011;37991;49.662;10.060;2022-11-20T13:45:00;10.00;;;5.57;;
51971;SDS011;37991;49.662;10.060;2022-11-20T13:47:28;10.85;;;5.82;;
51971;SDS011;37991;49.662;10.060;2022-11-20T13:49:54;11.25;;;5.25;;
51971;SDS011;37991;49.662;10.060;2022-11-20T13:58:05;11.02;;;4.78;;
51971;SDS011;37991;49.662;10.060;2022-11-20T14:00:58;12.15;;;5.10;;
51971;SDS011;37991;49.662;10.060;2022-11-20T14:03:32;11.10;;;5.47;;
51971;SDS011;37991;49.662;10.060;2022-11-20T14:06:01;12.30;;;5.85;;
51971;SDS011;37991;49.662;10.060;2022-11-20T14:08:42;9.07;;;4.68;;
51971;SDS011;37991;49.662;10.060;2022-11-20T14:13:52;10.60;;;5.00;;
51971;SDS011;37991;49.662;10.060;2022-11-20T14:16:23;11.93;;;5.13;;
51971;SDS011;37991;49.662;10.060;2022-11-20T14:18:51;11.30;;;5.22;;
51971;SDS011;37991;49.662;10.060;2022-11-20T14:21:24;10.68;;;6.00;;
51971;SDS011;37991;49.662;10.060;2022-11-20T14:24:07;12.23;;;5.45;;
51971;SDS011;37991;49.662;10.060;2022-11-20T14:26:36;11.60;;;5.22;;
51971;SDS011;37991;49.662;10.060;2022-11-20T14:29:10;9.35;;;5.38;;
51971;SDS011;37991;49.662;10.060;2022-11-20T14:31:38;8.23;;;4.60;;
51971;SDS011;37991;49.662;10.060;2022-11-20T14:34:04;10.50;;;5.40;;
51971;SDS011;37991;49.662;10.060;2022-11-20T14:36:29;9.25;;;4.35;;
51971;SDS011;37991;49.662;10.060;2022-11-20T14:38:54;9.80;;;5.35;;
51971;SDS011;37991;49.662;10.060;2022-11-20T14:41:23;11.25;;;5.30;;
51971;SDS011;37991;49.662;10.060;2022-11-20T14:43:58;10.07;;;5.05;;
51971;SDS011;37991;49.662;10.060;2022-11-20T14:46:25;9.40;;;4.55;;
51971;SDS011;37991;49.662;10.060;2022-11-20T14:48:55;10.48;;;5.35;;
51971;SDS011;37991;49.662;10.060;2022-11-20T14:51:35;10.48;;;6.03;;
51971;SDS011;37991;49.662;10.060;2022-11-20T14:54:14;9.27;;;5.25;;
51971;SDS011;37991;49.662;10.060;2022-11-20T14:56:41;10.90;;;5.13;;
51971;SDS011;37991;49.662;10.060;2022-11-20T14:59:07;8.55;;;5.18;;
51971;SDS011;37991;49.662;10.060;2022-11-20T15:01:34;7.95;;;4.18;;
51971;SDS011;37991;49.662;10.060;2022-11-20T15:04:01;10.35;;;5.40;;
51971;SDS011;37991;49.662;10.060;2022-11-20T15:06:30;8.57;;;4.45;;
51971;SDS011;37991;49.662;10.060;2022-11-20T15:08:56;10.18;;;4.55;;
51971;SDS011;37991;49.662;10.060;2022-11-20T15:11:29;10.63;;;4.88;;
51971;SDS011;37991;49.662;10.060;2022-11-20T15:13:57;10.07;;;5.13;;
51971;SDS011;37991;49.662;10.060;2022-11-20T15:16:27;11.10;;;5.75;;
51971;SDS011;37991;49.662;10.060;2022-11-20T15:18:53;9.93;;;4.82;;
51971;SDS011;37991;49.662;10.060;2022-11-20T15:21:19;10.30;;;4.60;;
51971;SDS011;37991;49.662;10.060;2022-11-20T15:23:48;9.38;;;4.78;;
51971;SDS011;37991;49.662;10.060;2022-11-20T15:26:17;11.45;;;5.20;;
51971;SDS011;37991;49.662;10.060;2022-11-20T15:28:47;9.00;;;5.05;;
51971;SDS011;37991;49.662;10.060;2022-11-20T15:31:16;11.60;;;5.85;;
51971;SDS011;37991;49.662;10.060;2022-11-20T15:33:43;10.63;;;5.80;;
51971;SDS011;37991;49.662;10.060;2022-11-20T15:36:12;12.65;;;6.50;;
51971;SDS011;37991;49.662;10.060;2022-11-20T15:38:38;12.75;;;6.65;;
51971;SDS011;37991;49.662;10.060;2022-11-20T15:41:03;12.20;;;6.80;;
51971;SDS011;37991;49.662;10.060;2022-11-20T15:43:29;16.20;;;7.00;;
51971;SDS011;37991;49.662;10.060;2022-11-20T15:45:56;12.93;;;7.07;;
51971;SDS011;37991;49.662;10.060;2022-11-20T15:48:32;16.48;;;6.63;;
51971;SDS011;37991;49.662;10.060;2022-11-20T15:53:36;15.70;;;7.22;;
51971;SDS011;37991;49.662;10.060;2022-11-20T15:56:02;15.02;;;7.05;;